Time;durP1;ratioP1;P1;durP2;ratioP2;P2;SDS_P1;SDS_P2;PMS_P1;PMS_P2;Temp;Humidity;BMP_temperature;BMP_pressure;BME280_temperature;BME280_humidity;BME280_pressure;Samples;Min_cycle;Max_cycle;Signal;HPM_P1;HPM_P2
2023/05/08 00:01:55;;;;;;;9.97;7.30;;;17.60;72.50;;;;;;5064316;28;20982;-66
2023/05/08 00:04:29;;;;;;;9.40;6.67;;;17.70;72.30;;;;;;5064423;28;20458;-66
2023/05/08 00:07:00;;;;;;;9.27;7.10;;;17.70;72.10;;;;;;5066385;28;20514;-66
2023/05/08 00:09:47;;;;;;;10.27;8.20;;;17.70;72.00;;;;;;5065240;28;20948;-66
2023/05/08 00:12:33;;;;;;;10.07;7.30;;;17.60;72.00;;;;;;5062481;28;20497;-66
2023/05/08 00:15:08;;;;;;;10.60;7.20;;;17.60;72.00;;;;;;5066587;28;20876;-66
2023/05/08 00:17:46;;;;;;;10.40;7.37;;;17.50;72.00;;;;;;5064448;28;20457;-67
2023/05/08 00:20:17;;;;;;;9.30;6.87;;;17.50;71.90;;;;;;5069712;28;20563;-66
2023/05/08 00:22:56;;;;;;;10.67;7.10;;;17.40;72.00;;;;;;5066953;28;20479;-66
2023/05/08 00:25:35;;;;;;;10.30;7.43;;;17.50;72.00;;;;;;5068663;28;20454;-66
2023/05/08 00:28:14;;;;;;;11.37;8.33;;;17.50;71.80;;;;;;5068011;28;20512;-66
2023/05/08 00:30:49;;;;;;;10.03;7.73;;;17.50;71.80;;;;;;5064337;28;20480;-66
2023/05/08 00:33:22;;;;;;;9.43;7.90;;;17.40;71.70;;;;;;5064043;28;20503;-66
2023/05/08 00:35:58;;;;;;;10.10;7.20;;;17.40;71.70;;;;;;5067083;28;20523;-66
2023/05/08 00:38:30;;;;;;;11.10;7.83;;;17.30;71.70;;;;;;5069142;28;20841;-66
2023/05/08 00:41:05;;;;;;;10.37;7.67;;;17.20;71.70;;;;;;5069012;28;20827;-66
2023/05/08 00:43:38;;;;;;;10.87;8.30;;;17.20;71.80;;;;;;5066681;28;22561;-66
2023/05/08 00:46:14;;;;;;;8.90;7.33;;;17.20;71.80;;;;;;5065161;28;20462;-66
2023/05/08 00:48:52;;;;;;;10.50;7.53;;;17.30;71.90;;;;;;5063402;28;20476;-66
2023/05/08 00:51:28;;;;;;;12.97;8.10;;;17.30;71.80;;;;;;5064727;28;20462;-66
2023/05/08 00:54:09;;;;;;;10.60;8.27;;;17.30;71.80;;;;;;5050599;28;20470;-68
2023/05/08 00:56:41;;;;;;;10.53;7.83;;;17.30;71.70;;;;;;5068379;28;21089;-66
2023/05/08 00:59:22;;;;;;;11.47;7.83;;;17.30;71.60;;;;;;5068403;28;20471;-66
2023/05/08 01:01:58;;;;;;;10.43;7.60;;;17.20;71.70;;;;;;5059941;28;20986;-66
2023/05/08 01:04:43;;;;;;;10.27;8.20;;;17.20;71.80;;;;;;5062620;28;20951;-66
2023/05/08 01:07:22;;;;;;;12.57;9.00;;;17.20;71.90;;;;;;5068080;28;20513;-66
2023/05/08 01:10:02;;;;;;;11.70;8.30;;;17.20;71.90;;;;;;5066331;28;20542;-66
2023/05/08 01:12:48;;;;;;;11.30;8.00;;;17.10;71.90;;;;;;5064883;28;20496;-66
2023/05/08 01:15:21;;;;;;;11.20;8.63;;;17.10;72.00;;;;;;5069792;28;20515;-66
2023/05/08 01:18:19;;;;;;;12.53;8.47;;;17.00;72.00;;;;;;5066260;28;20561;-66
2023/05/08 01:21:01;;;;;;;11.93;8.57;;;16.90;72.30;;;;;;5068173;28;20489;-66
2023/05/08 01:24:22;;;;;;;11.23;8.90;;;16.90;72.30;;;;;;5063267;28;20445;-66
2023/05/08 01:27:43;;;;;;;11.83;8.50;;;16.80;72.30;;;;;;5067687;28;20561;-66
2023/05/08 01:31:05;;;;;;;11.30;9.10;;;16.80;72.30;;;;;;5034488;28;20465;-66
2023/05/08 01:33:48;;;;;;;11.20;8.50;;;16.80;72.40;;;;;;4989916;28;20465;-66
2023/05/08 01:36:30;;;;;;;11.97;8.73;;;16.80;72.40;;;;;;5066202;28;20554;-66
2023/05/08 01:39:14;;;;;;;11.67;9.27;;;16.80;72.60;;;;;;5063961;28;20465;-66
2023/05/08 01:41:57;;;;;;;10.67;8.17;;;16.80;72.60;;;;;;5061299;28;20466;-66
2023/05/08 01:44:43;;;;;;;13.17;9.13;;;16.80;72.60;;;;;;5074936;28;20453;-66
2023/05/08 01:47:17;;;;;;;11.50;9.03;;;16.90;72.60;;;;;;5066060;28;20801;-65
2023/05/08 01:50:00;;;;;;;10.97;8.33;;;16.90;72.60;;;;;;5068677;28;20562;-66
2023/05/08 01:52:37;;;;;;;12.23;9.00;;;16.90;72.60;;;;;;5063316;28;20492;-66
2023/05/08 01:55:12;;;;;;;12.13;8.90;;;16.90;72.50;;;;;;5064383;28;20462;-66
2023/05/08 01:57:56;;;;;;;10.43;8.67;;;16.90;72.60;;;;;;5067038;28;20656;-66
2023/05/08 02:00:35;;;;;;;13.00;8.97;;;16.80;72.60;;;;;;5066212;28;20492;-66
2023/05/08 02:03:14;;;;;;;12.70;9.60;;;16.80;72.60;;;;;;5070111;28;20775;-66
2023/05/08 02:06:00;;;;;;;11.33;8.97;;;16.80;72.70;;;;;;5065731;28;20915;-66
2023/05/08 02:08:37;;;;;;;12.43;8.47;;;16.80;72.70;;;;;;5067211;28;20953;-66
2023/05/08 02:11:16;;;;;;;12.03;9.03;;;16.80;72.70;;;;;;5069183;28;20457;-66
2023/05/08 02:13:48;;;;;;;12.00;9.30;;;16.70;72.80;;;;;;5067825;28;20969;-66
2023/05/08 02:16:22;;;;;;;11.33;9.40;;;16.70;72.90;;;;;;5063971;28;20460;-66
2023/05/08 02:18:54;;;;;;;12.97;9.60;;;16.70;73.00;;;;;;5068216;28;20455;-66
2023/05/08 02:21:31;;;;;;;12.33;10.00;;;16.80;73.00;;;;;;5084578;28;21134;-66
2023/05/08 02:24:03;;;;;;;12.17;9.43;;;16.80;73.10;;;;;;5069379;28;20461;-66
2023/05/08 02:26:43;;;;;;;12.67;10.57;;;16.80;73.10;;;;;;5065515;28;20465;-66
2023/05/08 02:29:22;;;;;;;12.27;9.73;;;16.80;73.00;;;;;;5068594;28;20608;-66
2023/05/08 02:32:00;;;;;;;11.57;9.40;;;16.70;73.10;;;;;;5065057;28;20501;-66
2023/05/08 02:34:41;;;;;;;14.13;10.17;;;16.70;73.10;;;;;;5070016;28;20492;-66
2023/05/08 02:37:34;;;;;;;12.43;9.87;;;16.70;73.20;;;;;;5066830;28;20527;-66
2023/05/08 02:40:17;;;;;;;14.00;11.40;;;16.60;73.40;;;;;;5064393;28;20461;-65
2023/05/08 02:42:50;;;;;;;12.33;10.10;;;16.60;73.40;;;;;;5064853;28;20826;-66
2023/05/08 02:45:22;;;;;;;13.53;10.47;;;16.50;73.40;;;;;;5065458;28;20556;-65
2023/05/08 02:48:00;;;;;;;13.17;10.93;;;16.40;73.70;;;;;;5065786;28;21088;-65
2023/05/08 02:50:39;;;;;;;14.57;10.30;;;16.40;73.70;;;;;;5066058;28;20517;-65
2023/05/08 02:53:20;;;;;;;13.90;11.00;;;16.40;73.90;;;;;;5062346;28;20465;-66
2023/05/08 02:56:03;;;;;;;14.23;10.60;;;16.30;74.00;;;;;;5065399;28;20467;-65
2023/05/08 02:58:46;;;;;;;13.73;10.80;;;16.30;74.30;;;;;;5064308;28;20956;-66
2023/05/08 03:01:28;;;;;;;21.93;10.77;;;16.30;74.40;;;;;;5063613;28;20503;-66
2023/05/08 03:04:06;;;;;;;13.20;10.20;;;16.30;74.50;;;;;;5066831;28;20537;-65
2023/05/08 03:06:44;;;;;;;14.90;10.60;;;16.40;74.50;;;;;;5064937;28;20483;-65
2023/05/08 03:09:26;;;;;;;14.30;11.07;;;16.40;74.50;;;;;;5067874;28;20477;-66
2023/05/08 03:12:11;;;;;;;13.37;10.57;;;16.30;74.60;;;;;;5049430;28;20591;-65
2023/05/08 03:15:24;;;;;;;13.90;10.40;;;16.30;74.60;;;;;;5066435;28;20504;-66
2023/05/08 03:18:16;;;;;;;15.67;11.53;;;16.30;74.60;;;;;;5066594;28;20678;-66
2023/05/08 03:20:52;;;;;;;16.53;11.57;;;16.30;74.60;;;;;;5064097;28;20457;-66
2023/05/08 03:23:29;;;;;;;13.83;10.13;;;16.20;74.70;;;;;;5062552;28;20461;-66
2023/05/08 03:26:08;;;;;;;18.60;10.90;;;16.30;74.70;;;;;;5064592;28;20496;-66
2023/05/08 03:28:48;;;;;;;17.03;11.80;;;16.30;74.80;;;;;;5068737;28;20468;-66
2023/05/08 03:31:23;;;;;;;15.20;11.27;;;16.30;74.80;;;;;;5061944;28;20509;-66
2023/05/08 03:34:00;;;;;;;14.20;11.20;;;16.20;74.70;;;;;;5063453;28;20554;-66
2023/05/08 03:36:39;;;;;;;14.63;9.97;;;16.20;74.70;;;;;;5067775;28;20465;-66
2023/05/08 03:39:13;;;;;;;14.73;10.93;;;16.20;74.90;;;;;;5080218;28;20495;-66
2023/05/08 03:41:53;;;;;;;13.03;10.63;;;16.20;74.90;;;;;;5068366;28;20531;-66
2023/05/08 03:44:29;;;;;;;15.07;11.20;;;16.30;74.90;;;;;;5068326;28;20442;-66
2023/05/08 03:47:02;;;;;;;15.60;11.33;;;16.30;74.80;;;;;;5061852;28;20552;-66
2023/05/08 03:49:42;;;;;;;16.03;10.97;;;16.20;74.80;;;;;;5064114;28;20956;-66
2023/05/08 03:52:16;;;;;;;15.37;10.97;;;16.20;74.90;;;;;;5066227;28;21296;-67
2023/05/08 03:54:56;;;;;;;15.47;10.77;;;16.30;75.00;;;;;;5072610;28;20477;-66
2023/05/08 03:57:56;;;;;;;13.97;10.50;;;16.30;75.00;;;;;;5071043;28;20488;-66
2023/05/08 04:00:41;;;;;;;15.67;12.70;;;16.30;74.90;;;;;;5070815;28;20474;-66
2023/05/08 04:03:27;;;;;;;14.07;11.20;;;16.20;74.90;;;;;;5064232;28;20954;-65
2023/05/08 04:06:14;;;;;;;14.97;11.30;;;16.10;74.90;;;;;;5071630;28;20460;-65
2023/05/08 04:08:57;;;;;;;13.60;10.80;;;16.10;74.90;;;;;;5071507;28;20468;-66
2023/05/08 04:11:40;;;;;;;15.70;11.30;;;16.10;75.10;;;;;;5069252;28;20461;-65
2023/05/08 04:14:39;;;;;;;14.00;10.47;;;16.10;75.20;;;;;;5068191;28;20949;-66
2023/05/08 04:17:26;;;;;;;13.50;10.93;;;16.10;75.20;;;;;;5065500;28;20461;-66
2023/05/08 04:20:15;;;;;;;13.93;10.77;;;16.10;75.30;;;;;;5069481;28;20466;-66
2023/05/08 04:22:50;;;;;;;14.17;11.10;;;16.20;75.40;;;;;;5069238;28;20932;-66
2023/05/08 04:25:27;;;;;;;13.60;10.53;;;16.30;75.20;;;;;;5068343;28;20513;-65
2023/05/08 04:28:07;;;;;;;16.83;10.57;;;16.30;75.10;;;;;;5067980;28;20465;-66
2023/05/08 04:30:55;;;;;;;13.40;11.43;;;16.30;75.20;;;;;;5065212;28;20531;-66
2023/05/08 04:33:27;;;;;;;13.10;10.50;;;16.30;75.20;;;;;;5069712;28;20488;-66
2023/05/08 04:36:02;;;;;;;13.63;10.17;;;16.30;75.20;;;;;;5069493;28;20556;-66
2023/05/08 04:38:39;;;;;;;15.60;11.83;;;16.30;75.10;;;;;;5066102;28;20468;-66
2023/05/08 04:41:12;;;;;;;15.97;11.37;;;16.30;75.20;;;;;;5061338;28;20464;-67
2023/05/08 04:43:52;;;;;;;19.67;14.37;;;16.30;75.20;;;;;;5069654;28;20485;-67
2023/05/08 04:46:31;;;;;;;15.63;11.93;;;16.30;75.20;;;;;;5068762;28;20501;-67
2023/05/08 04:51:48;;;;;;;24.50;15.60;;;16.30;75.40;;;;;;5070265;28;20465;-67
2023/05/08 04:54:19;;;;;;;23.80;15.57;;;16.40;75.50;;;;;;5079289;28;20457;-67
2023/05/08 04:56:50;;;;;;;47.37;25.53;;;16.40;75.50;;;;;;5070607;28;20471;-67
2023/05/08 04:59:24;;;;;;;25.63;15.70;;;16.40;75.60;;;;;;5071719;28;20460;-67
2023/05/08 05:02:09;;;;;;;21.80;13.70;;;16.40;75.50;;;;;;5068489;28;20477;-67
2023/05/08 05:04:47;;;;;;;16.17;11.67;;;16.40;75.50;;;;;;5067321;28;20462;-67
2023/05/08 05:07:20;;;;;;;18.57;14.40;;;16.30;75.50;;;;;;5073765;28;20457;-67
2023/05/08 05:10:01;;;;;;;23.83;18.30;;;16.30;75.60;;;;;;5073401;28;20539;-67
2023/05/08 05:12:34;;;;;;;19.20;15.10;;;16.30;75.70;;;;;;5071378;28;20465;-67
2023/05/08 05:15:13;;;;;;;17.33;13.40;;;16.20;75.70;;;;;;5068951;28;20466;-67
2023/05/08 05:17:49;;;;;;;21.57;12.37;;;16.20;75.80;;;;;;5060850;28;21005;-67
2023/05/08 05:20:30;;;;;;;17.40;13.20;;;16.20;75.90;;;;;;5072912;28;20464;-67
2023/05/08 05:23:04;;;;;;;16.97;13.00;;;16.10;76.00;;;;;;5072000;28;20495;-67
2023/05/08 05:25:44;;;;;;;18.03;13.67;;;16.10;76.20;;;;;;5069949;28;20551;-67
2023/05/08 05:28:17;;;;;;;17.17;13.10;;;16.20;76.20;;;;;;5068140;28;20554;-67
2023/05/08 05:30:57;;;;;;;19.10;15.83;;;16.20;76.30;;;;;;5067108;28;20556;-67
2023/05/08 05:33:31;;;;;;;16.33;13.10;;;16.20;76.30;;;;;;5065460;28;20464;-67
2023/05/08 05:36:04;;;;;;;17.23;13.40;;;16.20;76.50;;;;;;5070220;28;20855;-67
2023/05/08 05:38:37;;;;;;;17.37;12.97;;;16.20;76.50;;;;;;5070446;28;20560;-67
2023/05/08 05:41:11;;;;;;;18.03;13.93;;;16.20;76.60;;;;;;5071267;28;20461;-67
2023/05/08 05:43:45;;;;;;;15.57;11.57;;;16.20;76.50;;;;;;5068327;28;20560;-67
2023/05/08 05:46:18;;;;;;;15.07;11.70;;;16.20;76.50;;;;;;5063437;28;20468;-67
2023/05/08 05:48:59;;;;;;;17.00;13.00;;;16.10;76.50;;;;;;5069661;28;20466;-67
2023/05/08 05:51:30;;;;;;;15.47;12.23;;;16.10;76.60;;;;;;5066574;28;20981;-67
2023/05/08 05:54:13;;;;;;;14.63;12.10;;;16.10;76.60;;;;;;5067993;28;20479;-67
2023/05/08 05:56:48;;;;;;;17.27;14.13;;;16.00;76.70;;;;;;5070381;28;20535;-67
2023/05/08 05:59:20;;;;;;;15.67;11.67;;;16.00;76.80;;;;;;5066414;28;20552;-67
2023/05/08 06:01:59;;;;;;;14.90;11.00;;;16.00;76.70;;;;;;5066900;28;20484;-67
2023/05/08 06:04:48;;;;;;;14.87;13.07;;;16.00;76.70;;;;;;5066610;28;20453;-67
2023/05/08 06:07:20;;;;;;;15.90;12.23;;;15.90;76.80;;;;;;5064938;28;20544;-67
2023/05/08 06:09:59;;;;;;;15.93;12.07;;;15.90;76.90;;;;;;5067457;28;20466;-67
2023/05/08 06:12:34;;;;;;;15.87;11.87;;;15.90;76.90;;;;;;5067914;28;20889;-67
2023/05/08 06:15:13;;;;;;;16.60;11.43;;;15.90;76.90;;;;;;5066392;28;20453;-67
2023/05/08 06:17:50;;;;;;;15.10;12.23;;;15.90;76.90;;;;;;5073262;28;20462;-68
2023/05/08 06:20:31;;;;;;;15.83;12.30;;;15.80;76.90;;;;;;5068766;28;20453;-67
2023/05/08 06:23:05;;;;;;;16.13;11.30;;;15.70;76.90;;;;;;5069026;28;20876;-67
2023/05/08 06:25:43;;;;;;;15.90;11.70;;;15.70;76.90;;;;;;5068376;28;20498;-67
2023/05/08 06:28:16;;;;;;;19.70;12.20;;;15.60;76.90;;;;;;5068265;28;20730;-67
2023/05/08 06:30:49;;;;;;;16.93;12.20;;;15.50;76.90;;;;;;5068203;28;20484;-67
2023/05/08 06:33:21;;;;;;;15.90;12.23;;;15.50;77.10;;;;;;5068550;28;20455;-67
2023/05/08 06:35:58;;;;;;;16.77;12.67;;;15.50;77.30;;;;;;5071151;28;20890;-67
2023/05/08 06:38:36;;;;;;;20.87;14.30;;;15.50;77.40;;;;;;5068542;28;20759;-67
2023/05/08 06:41:17;;;;;;;18.23;14.87;;;15.50;77.40;;;;;;5066744;28;20522;-67
2023/05/08 06:43:51;;;;;;;23.80;17.30;;;15.50;77.50;;;;;;5069673;28;20462;-67
2023/05/08 06:46:33;;;;;;;17.93;13.20;;;15.50;77.50;;;;;;5067576;28;20475;-67
2023/05/08 06:49:03;;;;;;;22.93;13.83;;;15.40;77.70;;;;;;5068419;28;20448;-67
2023/05/08 06:51:42;;;;;;;18.50;14.00;;;15.50;77.80;;;;;;5066874;28;20456;-67
2023/05/08 06:54:15;;;;;;;17.80;13.60;;;15.50;77.90;;;;;;5068918;28;20461;-67
2023/05/08 06:56:47;;;;;;;18.53;14.50;;;15.50;78.00;;;;;;5069071;28;20842;-67
2023/05/08 06:59:17;;;;;;;16.40;12.80;;;15.50;78.00;;;;;;5069990;28;20836;-67
2023/05/08 07:01:57;;;;;;;16.20;13.07;;;15.50;77.90;;;;;;5068071;28;20477;-67
2023/05/08 07:04:37;;;;;;;16.80;12.50;;;15.40;77.80;;;;;;5069435;28;20554;-67
2023/05/08 07:07:24;;;;;;;17.70;12.07;;;15.40;78.00;;;;;;5068962;28;20452;-67
2023/05/08 07:09:55;;;;;;;18.57;12.57;;;15.40;78.10;;;;;;5068739;28;20457;-66
2023/05/08 07:12:28;;;;;;;18.23;13.10;;;15.40;78.10;;;;;;5070215;28;21245;-67
2023/05/08 07:14:57;;;;;;;17.20;12.03;;;15.40;78.10;;;;;;5070850;28;20563;-67
2023/05/08 07:17:35;;;;;;;17.80;12.50;;;15.50;78.10;;;;;;5069113;28;21041;-67
2023/05/08 07:20:10;;;;;;;17.40;13.10;;;15.50;78.10;;;;;;5069235;28;20451;-67
2023/05/08 07:22:53;;;;;;;17.70;12.20;;;15.50;78.00;;;;;;5066336;28;20931;-67
2023/05/08 07:25:23;;;;;;;16.93;12.63;;;15.50;78.00;;;;;;5070562;28;20454;-67
2023/05/08 07:27:54;;;;;;;16.17;11.77;;;15.50;78.00;;;;;;5065534;28;20456;-68
2023/05/08 07:30:26;;;;;;;18.37;12.67;;;15.60;78.00;;;;;;5069105;28;20464;-67
2023/05/08 07:32:59;;;;;;;17.00;12.90;;;15.60;77.90;;;;;;5068549;28;20467;-67
2023/05/08 07:35:30;;;;;;;19.43;12.17;;;15.60;77.90;;;;;;5067673;28;20449;-67
2023/05/08 07:38:04;;;;;;;15.53;12.43;;;15.60;77.90;;;;;;5067809;28;20458;-67
2023/05/08 07:40:38;;;;;;;22.80;12.30;;;15.70;77.90;;;;;;5067134;28;20859;-67
2023/05/08 07:43:17;;;;;;;19.43;13.07;;;15.60;77.90;;;;;;5070616;28;20455;-67
2023/05/08 07:46:01;;;;;;;16.70;12.40;;;15.60;77.90;;;;;;5069022;28;20480;-67
2023/05/08 07:48:31;;;;;;;16.47;12.53;;;15.70;77.90;;;;;;5068793;28;20459;-67
2023/05/08 07:51:00;;;;;;;16.17;12.67;;;15.70;77.90;;;;;;5067285;28;20471;-67
2023/05/08 07:53:41;;;;;;;18.80;13.67;;;15.70;77.70;;;;;;5065118;28;20469;-67
2023/05/08 07:56:13;;;;;;;16.30;12.97;;;15.70;77.90;;;;;;5068962;28;20814;-67
2023/05/08 07:58:44;;;;;;;14.93;12.23;;;15.70;77.90;;;;;;5066051;28;20469;-67
2023/05/08 08:01:20;;;;;;;20.77;15.80;;;15.70;78.10;;;;;;5069650;28;20518;-68
2023/05/08 08:03:57;;;;;;;20.00;12.97;;;15.80;78.20;;;;;;5067734;28;20465;-67
2023/05/08 08:06:30;;;;;;;16.30;13.30;;;15.80;78.10;;;;;;5068752;28;20477;-67
2023/05/08 08:09:05;;;;;;;17.33;13.70;;;15.80;78.10;;;;;;5067650;28;20449;-67
2023/05/08 08:11:37;;;;;;;19.47;13.63;;;15.90;78.20;;;;;;5068825;28;20514;-67
2023/05/08 08:14:10;;;;;;;20.90;13.63;;;15.90;78.20;;;;;;5067774;28;20455;-67
2023/05/08 08:16:45;;;;;;;19.07;15.07;;;15.90;78.20;;;;;;5067165;28;20483;-67
2023/05/08 08:19:16;;;;;;;20.33;14.10;;;16.00;78.30;;;;;;5066741;28;20529;-67
2023/05/08 08:21:48;;;;;;;21.00;14.87;;;16.00;78.20;;;;;;5065647;28;20454;-67
2023/05/08 08:24:20;;;;;;;20.50;14.40;;;16.00;78.20;;;;;;5066838;28;20468;-67
2023/05/08 08:26:53;;;;;;;18.30;12.97;;;16.00;78.20;;;;;;5067975;28;20563;-67
2023/05/08 08:29:25;;;;;;;22.80;15.70;;;16.00;78.20;;;;;;5068223;28;20461;-67
2023/05/08 08:32:02;;;;;;;20.87;14.17;;;16.10;78.00;;;;;;5067286;28;20477;-67
2023/05/08 08:34:34;;;;;;;15.80;12.33;;;16.10;78.00;;;;;;5066361;28;20800;-67
2023/05/08 08:37:13;;;;;;;21.87;14.17;;;16.10;77.90;;;;;;5069013;28;20575;-67
2023/05/08 08:39:48;;;;;;;17.83;12.17;;;16.10;78.00;;;;;;5071145;28;20459;-68
2023/05/08 08:42:20;;;;;;;16.07;12.30;;;16.20;78.00;;;;;;5068947;28;20502;-67
2023/05/08 08:44:53;;;;;;;16.07;13.10;;;16.20;77.90;;;;;;5071327;28;20452;-67
2023/05/08 08:47:37;;;;;;;16.57;12.77;;;16.30;77.70;;;;;;5071000;28;20544;-67
2023/05/08 08:50:11;;;;;;;15.63;11.73;;;16.30;77.60;;;;;;5065362;28;20478;-67
2023/05/08 08:52:53;;;;;;;14.97;11.93;;;16.30;77.70;;;;;;5068289;28;20534;-67
2023/05/08 08:55:32;;;;;;;16.00;13.47;;;16.30;77.60;;;;;;5070065;28;20456;-67
2023/05/08 08:58:25;;;;;;;17.30;13.53;;;16.40;77.60;;;;;;5070460;28;20489;-67
2023/05/08 09:00:59;;;;;;;19.20;13.73;;;16.40;77.60;;;;;;5068668;28;20476;-67
2023/05/08 09:03:33;;;;;;;16.23;12.60;;;16.40;77.60;;;;;;5070182;28;20556;-67
2023/05/08 09:06:14;;;;;;;16.60;12.30;;;16.40;77.50;;;;;;5071298;28;20473;-67
2023/05/08 09:08:49;;;;;;;19.70;14.13;;;16.40;77.50;;;;;;5070261;28;20461;-67
2023/05/08 09:11:24;;;;;;;18.03;12.90;;;16.40;77.60;;;;;;5067799;28;20461;-67
2023/05/08 09:13:56;;;;;;;16.03;12.70;;;16.50;77.60;;;;;;5069735;28;20457;-67
2023/05/08 09:16:32;;;;;;;16.80;12.03;;;16.50;77.70;;;;;;5067157;28;20535;-67
2023/05/08 09:19:11;;;;;;;18.33;12.37;;;16.50;77.70;;;;;;5069053;28;20458;-67
2023/05/08 09:21:48;;;;;;;15.57;12.47;;;16.50;77.70;;;;;;5069162;28;20825;-67
2023/05/08 09:24:23;;;;;;;18.37;12.53;;;16.60;77.70;;;;;;5069523;28;21321;-67
2023/05/08 09:27:04;;;;;;;19.43;13.87;;;16.70;77.60;;;;;;5068819;28;20547;-67
2023/05/08 09:29:39;;;;;;;17.50;13.63;;;16.70;77.50;;;;;;5069251;28;20450;-67
2023/05/08 09:32:21;;;;;;;18.80;13.70;;;16.70;77.60;;;;;;5065677;28;20523;-67
2023/05/08 09:35:03;;;;;;;24.50;19.33;;;16.60;77.50;;;;;;5067651;28;20546;-67
2023/05/08 09:37:38;;;;;;;22.37;18.80;;;16.60;77.50;;;;;;5067086;28;20490;-67
2023/05/08 09:40:20;;;;;;;20.27;15.43;;;16.60;77.50;;;;;;5067744;28;20476;-68
2023/05/08 09:43:00;;;;;;;24.90;18.37;;;16.70;77.50;;;;;;5065493;28;20460;-67
2023/05/08 09:45:34;;;;;;;30.43;21.63;;;16.70;77.50;;;;;;5066216;28;20453;-69
2023/05/08 09:48:06;;;;;;;34.00;22.57;;;16.70;77.50;;;;;;5062858;28;20454;-67
2023/05/08 09:50:45;;;;;;;62.33;32.70;;;16.80;77.40;;;;;;5066634;28;20469;-67
2023/05/08 09:53:19;;;;;;;34.87;23.10;;;16.80;77.30;;;;;;5069626;28;20515;-67
2023/05/08 09:55:51;;;;;;;23.03;16.73;;;16.80;77.30;;;;;;5069202;28;20514;-67
2023/05/08 09:58:37;;;;;;;18.93;15.30;;;16.90;77.40;;;;;;5067579;28;20555;-67
2023/05/08 10:01:12;;;;;;;23.40;16.80;;;16.90;77.60;;;;;;5060113;28;20925;-67
2023/05/08 10:03:56;;;;;;;20.47;14.50;;;17.00;77.50;;;;;;5065303;28;20797;-67
2023/05/08 10:06:35;;;;;;;20.60;15.20;;;17.00;77.40;;;;;;5067455;28;20441;-67
2023/05/08 10:09:17;;;;;;;19.37;13.80;;;17.00;77.40;;;;;;5068079;28;20462;-67
2023/05/08 10:11:52;;;;;;;18.43;14.50;;;17.10;77.20;;;;;;5068100;28;20474;-67
2023/05/08 10:14:29;;;;;;;18.30;13.80;;;17.10;77.00;;;;;;5071895;28;20457;-68
2023/05/08 10:17:14;;;;;;;21.93;15.33;;;17.10;77.00;;;;;;5062861;28;20458;-67
2023/05/08 10:19:56;;;;;;;17.60;13.87;;;17.00;77.00;;;;;;5066964;28;20462;-67
2023/05/08 10:22:31;;;;;;;18.87;14.40;;;16.90;76.90;;;;;;5063164;28;21194;-67
2023/05/08 10:25:10;;;;;;;19.00;15.93;;;16.90;76.90;;;;;;5068112;28;20461;-67
2023/05/08 10:28:04;;;;;;;19.00;14.87;;;16.90;77.00;;;;;;5068607;28;20453;-67
2023/05/08 10:30:46;;;;;;;21.40;16.30;;;17.00;77.10;;;;;;5065991;28;20473;-67
2023/05/08 10:33:26;;;;;;;19.13;14.47;;;17.00;77.10;;;;;;5071415;28;20763;-67
2023/05/08 10:36:01;;;;;;;18.83;15.20;;;17.00;77.10;;;;;;5064876;28;21100;-67
2023/05/08 10:38:39;;;;;;;18.13;14.93;;;17.00;77.10;;;;;;5066874;28;20474;-67
2023/05/08 10:41:11;;;;;;;25.50;17.17;;;17.10;77.00;;;;;;5067815;28;20503;-67
2023/05/08 10:43:51;;;;;;;19.90;15.20;;;17.10;77.00;;;;;;5066144;28;20854;-66
2023/05/08 10:46:37;;;;;;;19.27;14.53;;;17.20;77.00;;;;;;5068172;28;20462;-67
2023/05/08 10:49:25;;;;;;;21.07;14.70;;;17.20;76.90;;;;;;5063915;28;20907;-67
2023/05/08 10:52:08;;;;;;;21.73;15.80;;;17.30;76.80;;;;;;5068068;28;20461;-67
2023/05/08 10:58:10;;;;;;;20.00;15.90;;;17.30;76.70;;;;;;5067460;28;20479;-67
2023/05/08 11:01:14;;;;;;;22.60;16.20;;;17.30;76.80;;;;;;5067704;28;20516;-67
2023/05/08 11:03:55;;;;;;;22.60;15.60;;;17.30;76.80;;;;;;5021033;28;20462;-67
2023/05/08 11:06:45;;;;;;;19.97;14.73;;;17.40;76.80;;;;;;5065733;28;20965;-67
2023/05/08 11:09:24;;;;;;;19.40;15.07;;;17.40;76.70;;;;;;5067084;28;20928;-66
2023/05/08 11:12:08;;;;;;;20.60;15.87;;;17.50;76.70;;;;;;5067402;28;20484;-66
2023/05/08 11:14:47;;;;;;;20.10;15.87;;;17.50;76.30;;;;;;5068266;28;20556;-66
2023/05/08 11:17:26;;;;;;;21.17;15.40;;;17.50;76.40;;;;;;5066472;28;20450;-66
2023/05/08 11:20:08;;;;;;;44.10;31.00;;;17.50;76.40;;;;;;5065475;28;20441;-66
2023/05/08 11:22:51;;;;;;;21.57;17.13;;;17.60;76.40;;;;;;5065545;28;20484;-66
2023/05/08 11:25:44;;;;;;;20.03;16.20;;;17.60;76.50;;;;;;5067804;28;21627;-66
2023/05/08 11:28:21;;;;;;;21.57;15.90;;;17.60;76.50;;;;;;5066610;28;20442;-67
2023/05/08 11:31:04;;;;;;;26.27;19.50;;;17.60;76.50;;;;;;5065139;28;20791;-67
2023/05/08 11:33:40;;;;;;;23.90;17.80;;;17.70;76.60;;;;;;5064832;28;21003;-67
2023/05/08 11:36:26;;;;;;;23.90;18.10;;;17.70;76.70;;;;;;5049661;28;21168;-67
2023/05/08 11:39:11;;;;;;;21.53;15.90;;;17.70;76.60;;;;;;5063417;28;20499;-67
2023/05/08 11:41:46;;;;;;;22.73;16.03;;;17.70;76.60;;;;;;5063849;28;20454;-67
2023/05/08 11:44:22;;;;;;;26.77;18.40;;;17.70;76.80;;;;;;5066166;28;20458;-68
2023/05/08 11:46:52;;;;;;;22.13;16.57;;;17.80;76.90;;;;;;5066486;28;20527;-67
2023/05/08 11:49:31;;;;;;;30.73;22.40;;;17.90;76.80;;;;;;5063152;28;20462;-67
2023/05/08 11:52:08;;;;;;;24.47;19.20;;;17.90;76.70;;;;;;5062842;28;21184;-67
2023/05/08 11:54:40;;;;;;;23.90;18.60;;;17.90;76.70;;;;;;5066091;28;20465;-67
2023/05/08 11:57:10;;;;;;;28.23;21.83;;;17.90;76.60;;;;;;5067202;28;20459;-67
2023/05/08 11:59:51;;;;;;;30.63;21.43;;;17.80;76.80;;;;;;5067866;28;20484;-67
2023/05/08 12:02:39;;;;;;;27.20;21.60;;;17.80;76.90;;;;;;5065350;28;20985;-67
2023/05/08 12:05:11;;;;;;;22.63;18.13;;;17.80;77.20;;;;;;5064825;28;20560;-68
2023/05/08 12:07:48;;;;;;;29.67;22.83;;;17.80;77.30;;;;;;5068081;28;20462;-67
2023/05/08 12:10:27;;;;;;;23.13;18.10;;;17.80;77.50;;;;;;5068869;28;20450;-67
2023/05/08 12:13:17;;;;;;;26.90;21.17;;;17.90;77.50;;;;;;5067857;28;20794;-67
2023/05/08 12:15:52;;;;;;;28.50;21.07;;;17.90;77.40;;;;;;5075009;28;20558;-67
2023/05/08 12:18:26;;;;;;;27.70;19.77;;;17.90;77.40;;;;;;5071769;28;20979;-67
2023/05/08 12:21:00;;;;;;;24.87;20.63;;;17.90;77.60;;;;;;5074002;28;20456;-68
2023/05/08 12:23:36;;;;;;;23.13;18.90;;;17.90;77.70;;;;;;5069464;28;20461;-67
2023/05/08 12:26:11;;;;;;;25.17;20.33;;;17.90;77.80;;;;;;5071272;28;20490;-67
2023/05/08 12:28:47;;;;;;;24.37;19.27;;;17.80;77.80;;;;;;5071879;28;20449;-68
2023/05/08 12:31:32;;;;;;;27.67;20.60;;;17.80;78.00;;;;;;5062260;28;20565;-67
2023/05/08 12:34:08;;;;;;;25.47;20.70;;;17.80;78.30;;;;;;5071999;28;20968;-67
2023/05/08 12:36:41;;;;;;;26.10;20.20;;;17.80;78.40;;;;;;5073884;28;20463;-66
2023/05/08 12:39:40;;;;;;;25.87;21.07;;;17.80;78.40;;;;;;5073486;28;20469;-66
2023/05/08 12:42:19;;;;;;;24.97;20.20;;;17.80;78.50;;;;;;5074020;28;20596;-67
2023/05/08 12:44:55;;;;;;;27.70;21.70;;;17.80;78.50;;;;;;5073380;28;20549;-66
2023/05/08 12:47:27;;;;;;;26.03;20.80;;;17.80;78.60;;;;;;5071346;28;20454;-66
2023/05/08 12:50:00;;;;;;;27.10;22.67;;;17.80;78.70;;;;;;5072711;28;20941;-66
2023/05/08 12:52:44;;;;;;;27.87;20.87;;;17.80;79.00;;;;;;5072024;28;20450;-66
2023/05/08 12:55:56;;;;;;;27.93;22.10;;;17.90;79.10;;;;;;5068273;28;21086;-66
2023/05/08 12:58:28;;;;;;;25.67;20.83;;;17.90;79.00;;;;;;5072341;28;20459;-66
2023/05/08 13:01:12;;;;;;;29.23;21.43;;;18.00;79.10;;;;;;5069724;28;21054;-66
2023/05/08 13:03:45;;;;;;;27.73;21.73;;;18.00;78.90;;;;;;5069493;28;20517;-67
2023/05/08 13:06:34;;;;;;;29.60;22.27;;;18.00;78.90;;;;;;5072050;28;20459;-66
2023/05/08 13:09:07;;;;;;;28.63;21.70;;;18.00;78.80;;;;;;5071794;28;20554;-66
2023/05/08 13:11:47;;;;;;;27.63;21.37;;;18.00;78.90;;;;;;5072011;28;20470;-66
2023/05/08 13:14:22;;;;;;;27.60;21.53;;;17.90;78.90;;;;;;5085679;28;20503;-66
2023/05/08 13:16:56;;;;;;;25.90;21.37;;;17.90;78.90;;;;;;5072091;28;20453;-66
2023/05/08 13:22:21;;;;;;;28.60;19.97;;;18.00;78.90;;;;;;5070063;28;20660;-66
2023/05/08 13:24:55;;;;;;;25.03;19.90;;;18.00;78.90;;;;;;5070922;28;20486;-66
2023/05/08 13:27:43;;;;;;;24.90;18.00;;;18.00;78.90;;;;;;5071194;28;20555;-66
2023/05/08 13:30:21;;;;;;;24.20;19.47;;;18.00;78.90;;;;;;5067505;28;20454;-66
2023/05/08 13:32:56;;;;;;;25.83;19.50;;;18.00;78.70;;;;;;5070858;28;20449;-66
2023/05/08 13:35:27;;;;;;;25.20;18.43;;;18.00;78.80;;;;;;5071670;28;21013;-66